createdAt,value
2018-04-26T00:00:45.382Z,11.90
2018-04-26T00:03:15.002Z,11.90
2018-04-26T00:05:43.532Z,11.90
2018-04-26T00:08:11.113Z,11.90
2018-04-26T00:10:38.629Z,11.90
2018-04-26T00:13:06.087Z,11.80
2018-04-26T00:15:33.859Z,11.90
2018-04-26T00:18:01.432Z,11.80
2018-04-26T00:20:29.231Z,11.80
2018-04-26T00:22:57.448Z,11.70
2018-04-26T00:25:24.933Z,11.70
2018-04-26T00:27:52.412Z,11.70
2018-04-26T00:30:20.627Z,11.80
2018-04-26T00:32:48.419Z,11.80
2018-04-26T00:35:16.089Z,11.80
2018-04-26T00:37:43.752Z,11.80
2018-04-26T00:40:11.819Z,11.80
2018-04-26T00:42:39.792Z,11.70
2018-04-26T00:45:07.269Z,11.70
2018-04-26T00:47:35.564Z,11.60
2018-04-26T00:50:04.038Z,11.60
2018-04-26T00:52:32.308Z,11.60
2018-04-26T00:55:01.130Z,11.60
2018-04-26T00:57:28.623Z,11.60
2018-04-26T00:59:56.089Z,11.60
2018-04-26T01:02:23.536Z,11.60
2018-04-26T01:04:51.413Z,11.60
2018-04-26T01:07:19.378Z,11.60
2018-04-26T01:09:47.146Z,11.60
2018-04-26T01:12:14.597Z,11.50
2018-04-26T01:14:42.068Z,11.50
2018-04-26T01:17:09.515Z,11.50
2018-04-26T01:19:37.377Z,11.60
2018-04-26T01:22:04.839Z,11.60
2018-04-26T01:24:32.631Z,11.60
2018-04-26T01:27:00.871Z,11.50
2018-04-26T01:29:28.338Z,11.50
2018-04-26T01:31:57.474Z,11.50
2018-04-26T01:34:24.947Z,11.50
2018-04-26T01:37:04.944Z,11.50
2018-04-26T01:39:32.907Z,11.40
2018-04-26T01:42:00.888Z,11.50
2018-04-26T01:44:29.141Z,11.50
2018-04-26T01:46:56.588Z,11.50
2018-04-26T01:49:24.071Z,11.50
2018-04-26T01:51:51.544Z,11.50
2018-04-26T01:54:20.186Z,11.60
2018-04-26T01:56:47.953Z,11.50
2018-04-26T01:59:15.395Z,11.60
2018-04-26T02:01:42.863Z,11.50
2018-04-26T02:04:10.835Z,11.30
2018-04-26T02:06:40.419Z,11.20
2018-04-26T02:09:08.898Z,11.10
2018-04-26T02:11:36.343Z,11.00
2018-04-26T02:14:03.813Z,10.90
2018-04-26T02:16:31.549Z,10.90
2018-04-26T02:18:59.561Z,10.80
2018-04-26T02:21:27.016Z,10.70
2018-04-26T02:23:56.343Z,10.70
2018-04-26T02:26:23.819Z,10.70
2018-04-26T02:28:52.052Z,10.80
2018-04-26T02:31:19.637Z,10.80
2018-04-26T02:33:47.100Z,10.80
2018-04-26T02:36:16.655Z,10.80
2018-04-26T02:38:44.133Z,10.80
2018-04-26T02:41:11.904Z,10.80
2018-04-26T02:43:39.548Z,10.80
2018-04-26T02:46:07.022Z,10.90
2018-04-26T02:48:35.390Z,11.00
2018-04-26T02:51:02.847Z,10.90
2018-04-26T02:53:30.613Z,11.00
2018-04-26T02:55:58.056Z,10.90
2018-04-26T02:58:25.564Z,10.80
2018-04-26T03:00:54.108Z,10.70
2018-04-26T03:03:22.595Z,10.70
2018-04-26T03:05:50.846Z,10.70
2018-04-26T03:08:19.677Z,10.60
2018-04-26T03:10:49.055Z,10.60
2018-04-26T03:13:16.500Z,10.60
2018-04-26T03:15:44.005Z,10.60
2018-04-26T03:18:12.223Z,10.60
2018-04-26T03:20:40.839Z,10.60
2018-04-26T03:23:08.303Z,10.60
2018-04-26T03:25:35.801Z,10.60
2018-04-26T03:28:03.847Z,10.50
2018-04-26T03:30:32.417Z,10.50
2018-04-26T03:32:59.866Z,10.40
2018-04-26T03:35:27.714Z,10.40
2018-04-26T03:37:55.215Z,10.40
2018-04-26T03:40:23.530Z,10.30
2018-04-26T03:42:50.977Z,10.30
2018-04-26T03:45:18.905Z,10.20
2018-04-26T03:47:47.129Z,10.30
2018-04-26T03:50:15.017Z,10.30
2018-04-26T03:52:42.467Z,10.30
2018-04-26T03:55:10.739Z,10.40
2018-04-26T03:57:39.750Z,10.40
2018-04-26T04:00:19.120Z,10.40
2018-04-26T04:02:59.223Z,10.30
2018-04-26T04:05:40.092Z,10.40
2018-04-26T04:08:07.756Z,10.40
2018-04-26T04:10:35.199Z,10.40
2018-04-26T04:13:02.999Z,10.40
2018-04-26T04:15:30.447Z,10.30
2018-04-26T04:18:00.059Z,10.20
2018-04-26T04:20:28.203Z,10.20
2018-04-26T04:22:55.984Z,10.20
2018-04-26T04:25:23.431Z,10.10
2018-04-26T04:27:50.909Z,10.10
2018-04-26T04:30:19.500Z,10.10
2018-04-26T04:32:46.956Z,10.00
2018-04-26T04:35:14.856Z,10.00
2018-04-26T04:37:42.314Z,10.00
2018-04-26T04:40:10.325Z,10.00
2018-04-26T04:42:37.766Z,9.90
2018-04-26T04:45:05.476Z,9.90
2018-04-26T04:47:32.999Z,9.90
2018-04-26T04:50:00.445Z,9.90
2018-04-26T04:52:28.328Z,9.90
2018-04-26T04:54:56.095Z,9.80
2018-04-26T04:57:24.297Z,9.90
2018-04-26T04:59:52.947Z,9.90
2018-04-26T05:02:20.388Z,9.90
2018-04-26T05:04:48.375Z,9.90
2018-04-26T05:07:15.843Z,9.90
2018-04-26T05:09:43.296Z,9.90
2018-04-26T05:12:11.147Z,9.90
2018-04-26T05:14:39.978Z,9.90
2018-04-26T05:17:08.177Z,9.90
2018-04-26T05:19:36.232Z,9.90
2018-04-26T05:22:03.650Z,9.90
2018-04-26T05:24:31.116Z,9.80
2018-04-26T05:26:58.829Z,9.80
2018-04-26T05:29:26.275Z,9.80
2018-04-26T05:31:53.744Z,9.90
2018-04-26T05:34:21.730Z,9.80
2018-04-26T05:36:49.772Z,9.80
2018-04-26T05:39:17.207Z,9.80
2018-04-26T05:41:45.819Z,9.80
2018-04-26T05:44:13.256Z,9.80
2018-04-26T05:46:40.839Z,9.80
2018-04-26T05:49:08.274Z,9.80
2018-04-26T05:51:36.510Z,9.80
2018-04-26T05:54:05.391Z,9.80
2018-04-26T05:56:32.844Z,9.80
2018-04-26T05:59:00.286Z,9.80
2018-04-26T06:01:28.699Z,9.80
2018-04-26T06:03:57.776Z,9.90
2018-04-26T06:06:25.252Z,10.00
2018-04-26T06:08:53.740Z,10.20
2018-04-26T06:11:22.091Z,10.30
2018-04-26T06:13:49.900Z,10.30
2018-04-26T06:16:17.418Z,10.40
2018-04-26T06:18:46.012Z,10.20
2018-04-26T06:21:13.538Z,10.20
2018-04-26T06:23:40.979Z,10.20
2018-04-26T06:26:08.499Z,10.20
2018-04-26T06:28:36.725Z,10.20
2018-04-26T06:31:04.221Z,10.20
2018-04-26T06:33:31.653Z,10.20
2018-04-26T06:35:59.366Z,10.10
2018-04-26T06:38:27.190Z,10.20
2018-04-26T06:40:54.843Z,10.10
2018-04-26T06:43:23.088Z,10.10
2018-04-26T06:45:50.558Z,10.10
2018-04-26T06:48:18.111Z,10.20
2018-04-26T06:50:45.554Z,10.20
2018-04-26T06:53:13.746Z,10.20
2018-04-26T06:55:41.299Z,10.20
2018-04-26T06:58:08.808Z,10.20
2018-04-26T07:00:37.274Z,10.40
2018-04-26T07:03:04.813Z,10.30
2018-04-26T07:05:32.785Z,10.40
2018-04-26T07:08:00.262Z,10.50
2018-04-26T07:10:27.730Z,10.60
2018-04-26T07:12:55.963Z,10.60
2018-04-26T07:15:23.443Z,10.60
2018-04-26T07:17:50.911Z,10.60
2018-04-26T07:20:19.358Z,10.70
2018-04-26T07:22:46.806Z,10.60
2018-04-26T07:25:14.796Z,10.70
2018-04-26T07:27:42.551Z,10.70
2018-04-26T07:30:10.617Z,10.80
2018-04-26T07:32:38.059Z,10.80
2018-04-26T07:35:05.952Z,10.90
2018-04-26T07:37:35.047Z,10.90
2018-04-26T07:40:02.625Z,10.90
2018-04-26T07:42:30.256Z,10.90
2018-04-26T07:44:57.843Z,10.90
2018-04-26T07:47:26.094Z,11.00
2018-04-26T07:49:53.559Z,11.00
2018-04-26T07:52:21.621Z,11.00
2018-04-26T07:54:49.606Z,11.00
2018-04-26T07:57:17.079Z,11.00
2018-04-26T07:59:45.308Z,11.00
2018-04-26T08:02:12.792Z,11.00
2018-04-26T08:04:40.856Z,11.10
2018-04-26T08:07:08.310Z,11.20
2018-04-26T08:09:36.371Z,11.20
2018-04-26T08:12:03.839Z,11.30
2018-04-26T08:14:31.632Z,11.40
2018-04-26T08:16:59.903Z,11.40
2018-04-26T08:19:28.555Z,11.50
2018-04-26T08:21:56.539Z,11.50
2018-04-26T08:24:23.983Z,11.50
2018-04-26T08:26:51.592Z,11.60
2018-04-26T08:29:19.035Z,11.60
2018-04-26T08:31:47.303Z,11.70
2018-04-26T08:34:15.515Z,11.70
2018-04-26T08:36:43.537Z,11.70
2018-04-26T08:39:10.913Z,11.70
2018-04-26T08:41:39.972Z,11.60
2018-04-26T08:44:11.360Z,11.60
2018-04-26T08:46:38.810Z,11.70
2018-04-26T08:49:06.266Z,11.70
2018-04-26T08:51:34.619Z,11.70
2018-04-26T08:54:03.702Z,11.70
2018-04-26T08:56:31.203Z,11.80
2018-04-26T08:58:58.662Z,11.90
2018-04-26T09:01:26.903Z,12.00
2018-04-26T09:03:55.681Z,12.10
2018-04-26T09:06:23.163Z,12.20
2018-04-26T09:08:51.615Z,12.20
2018-04-26T09:11:19.063Z,12.10
2018-04-26T09:13:46.719Z,12.20
2018-04-26T09:16:14.159Z,12.20
2018-04-26T09:18:41.956Z,12.20
2018-04-26T09:21:09.414Z,12.20
2018-04-26T09:23:36.874Z,12.10
2018-04-26T09:26:04.319Z,12.10
2018-04-26T09:28:31.791Z,11.90
2018-04-26T09:30:59.219Z,11.70
2018-04-26T09:33:26.680Z,11.50
2018-04-26T09:35:54.655Z,11.30
2018-04-26T09:38:22.159Z,11.10
2018-04-26T09:40:50.611Z,10.90
2018-04-26T09:43:18.997Z,10.90
2018-04-26T09:45:46.547Z,10.90
2018-04-26T09:48:14.525Z,11.00
2018-04-26T09:50:42.751Z,11.30
2018-04-26T09:53:11.215Z,11.30
2018-04-26T09:55:39.106Z,11.50
2018-04-26T09:58:06.777Z,11.80
2018-04-26T10:00:34.215Z,12.00
2018-04-26T10:03:07.437Z,12.20
2018-04-26T10:05:41.183Z,12.50
2018-04-26T10:08:08.655Z,12.60
2018-04-26T10:10:37.575Z,12.70
2018-04-26T10:13:05.027Z,12.80
2018-04-26T10:15:32.694Z,12.90
2018-04-26T10:18:00.208Z,13.10
2018-04-26T10:20:29.246Z,13.20
2018-04-26T10:22:56.741Z,13.30
2018-04-26T10:25:25.230Z,13.30
2018-04-26T10:27:52.725Z,13.30
2018-04-26T10:30:21.657Z,13.10
2018-04-26T10:32:49.121Z,12.90
2018-04-26T10:35:18.491Z,12.60
2018-04-26T10:37:45.975Z,12.60
2018-04-26T10:40:15.957Z,12.90
2018-04-26T10:42:43.519Z,12.80
2018-04-26T10:45:11.189Z,13.00
2018-04-26T10:47:38.672Z,13.10
2018-04-26T10:50:07.538Z,13.40
2018-04-26T10:52:35.523Z,13.40
2018-04-26T10:55:05.629Z,13.60
2018-04-26T10:57:36.425Z,13.70
2018-04-26T11:00:03.918Z,13.60
2018-04-26T11:02:31.369Z,13.80
2018-04-26T11:05:00.455Z,13.80
2018-04-26T11:07:27.963Z,13.80
2018-04-26T11:09:56.178Z,14.10
2018-04-26T11:12:23.632Z,14.00
2018-04-26T11:14:51.277Z,14.10
2018-04-26T11:17:18.755Z,14.10
2018-04-26T11:19:48.436Z,14.10
2018-04-26T11:22:16.652Z,14.10
2018-04-26T11:24:44.101Z,14.00
2018-04-26T11:27:11.542Z,13.80
2018-04-26T11:29:39.007Z,13.60
2018-04-26T11:32:06.462Z,13.50
2018-04-26T11:34:33.920Z,13.50
2018-04-26T11:37:02.011Z,13.60
2018-04-26T11:39:29.671Z,13.90
2018-04-26T11:41:58.657Z,14.20
2018-04-26T11:44:26.520Z,14.20
2018-04-26T11:46:53.984Z,14.20
2018-04-26T11:49:21.436Z,14.10
2018-04-26T11:51:49.521Z,14.10
2018-04-26T11:54:17.497Z,14.00
2018-04-26T11:56:45.715Z,14.30
2018-04-26T11:59:13.185Z,14.30
2018-04-26T12:01:41.183Z,14.40
2018-04-26T12:04:09.130Z,14.30
2018-04-26T12:06:36.622Z,14.00
2018-04-26T12:09:04.684Z,13.60
2018-04-26T12:11:32.330Z,13.40
2018-04-26T12:13:59.796Z,13.20
2018-04-26T12:16:28.372Z,13.00
2018-04-26T12:18:57.570Z,12.90
2018-04-26T12:21:25.024Z,12.70
2018-04-26T12:23:52.476Z,12.70
2018-04-26T12:26:19.936Z,12.70
2018-04-26T12:28:47.383Z,12.70
2018-04-26T12:31:15.211Z,12.50
2018-04-26T12:33:44.153Z,12.50
2018-04-26T12:36:13.585Z,12.90
2018-04-26T12:38:42.942Z,13.20
2018-04-26T12:41:11.041Z,13.20
2018-04-26T12:43:38.504Z,13.50
2018-04-26T12:46:06.157Z,13.80
2018-04-26T12:48:33.612Z,13.80
2018-04-26T12:51:01.361Z,13.80
2018-04-26T12:53:29.430Z,13.80
2018-04-26T12:55:58.706Z,13.80
2018-04-26T12:58:26.089Z,14.00
2018-04-26T13:00:53.726Z,14.30
2018-04-26T13:03:21.184Z,14.70
2018-04-26T13:05:50.393Z,15.00
2018-04-26T13:08:17.860Z,15.30
2018-04-26T13:10:45.635Z,15.40
2018-04-26T13:13:13.079Z,15.30
2018-04-26T13:15:40.568Z,15.10
2018-04-26T13:18:08.802Z,14.80
2018-04-26T13:20:37.622Z,14.80
2018-04-26T13:23:05.836Z,14.90
2018-04-26T13:25:33.301Z,14.90
2018-04-26T13:28:01.140Z,15.10
2018-04-26T13:30:28.581Z,15.20
2018-04-26T13:32:56.820Z,15.50
2018-04-26T13:35:24.892Z,15.50
2018-04-26T13:37:52.421Z,15.80
2018-04-26T13:40:21.245Z,16.00
2018-04-26T13:42:48.701Z,16.00
2018-04-26T13:45:17.796Z,16.10
2018-04-26T13:47:45.255Z,16.10
2018-04-26T13:50:12.695Z,16.20
2018-04-26T13:52:40.165Z,16.20
2018-04-26T13:55:09.124Z,16.10
2018-04-26T13:57:36.811Z,16.00
2018-04-26T14:00:05.713Z,15.80
2018-04-26T14:02:34.698Z,15.40
2018-04-26T14:05:02.540Z,14.80
2018-04-26T14:07:30.013Z,14.30
2018-04-26T14:09:57.478Z,13.80
2018-04-26T14:12:25.208Z,13.40
2018-04-26T14:14:52.661Z,13.10
2018-04-26T14:17:20.487Z,13.10
2018-04-26T14:19:50.368Z,13.80
2018-04-26T14:22:17.903Z,13.70
2018-04-26T14:24:45.959Z,14.30
2018-04-26T14:27:13.612Z,14.70
2018-04-26T14:29:43.788Z,15.20
2018-04-26T14:32:11.968Z,15.20
2018-04-26T14:34:39.419Z,15.40
2018-04-26T14:37:08.020Z,15.60
2018-04-26T14:39:35.408Z,15.80
2018-04-26T14:42:04.054Z,16.00
2018-04-26T14:44:31.643Z,16.30
2018-04-26T14:46:59.247Z,16.50
2018-04-26T14:49:26.688Z,16.80
2018-04-26T14:51:54.154Z,16.80
2018-04-26T14:54:22.132Z,16.50
2018-04-26T14:56:49.599Z,16.20
2018-04-26T14:59:17.031Z,15.80
2018-04-26T15:01:44.708Z,15.50
2018-04-26T15:04:12.787Z,15.40
2018-04-26T15:06:40.249Z,15.50
2018-04-26T15:09:07.757Z,15.60
2018-04-26T15:11:35.223Z,15.70
2018-04-26T15:14:03.587Z,16.10
2018-04-26T15:16:31.058Z,16.00
2018-04-26T15:18:59.147Z,16.20
2018-04-26T15:21:26.819Z,16.40
2018-04-26T15:23:54.668Z,16.40
2018-04-26T15:26:22.133Z,16.50
2018-04-26T15:28:49.591Z,16.70
2018-04-26T15:31:17.052Z,16.90
2018-04-26T15:33:44.553Z,17.00
2018-04-26T15:36:13.773Z,17.10
2018-04-26T15:38:41.221Z,17.00
2018-04-26T15:41:10.057Z,17.10
2018-04-26T15:43:37.612Z,17.00
2018-04-26T15:46:05.055Z,16.90
2018-04-26T15:48:33.038Z,16.80
2018-04-26T15:51:00.480Z,16.80
2018-04-26T15:53:40.335Z,16.70
2018-04-26T15:56:32.605Z,16.50
2018-04-26T15:59:11.932Z,16.50
2018-04-26T16:05:34.352Z,16.50
2018-04-26T16:08:19.597Z,16.50
2018-04-26T16:11:05.619Z,16.60
2018-04-26T16:13:50.898Z,16.60
2018-04-26T16:16:36.907Z,16.40
2018-04-26T16:19:28.120Z,16.40
2018-04-26T16:22:13.919Z,16.40
2018-04-26T16:24:54.424Z,16.20
2018-04-26T16:27:39.697Z,16.10
2018-04-26T16:30:19.489Z,16.10
2018-04-26T16:33:04.960Z,16.10
2018-04-26T16:35:46.458Z,16.10
2018-04-26T16:38:25.728Z,16.00
2018-04-26T16:40:56.036Z,15.80
2018-04-26T16:43:24.249Z,15.70
2018-04-26T16:45:51.754Z,15.70
2018-04-26T16:48:19.311Z,15.70
2018-04-26T16:50:47.228Z,15.80
2018-04-26T16:53:15.444Z,15.80
2018-04-26T16:55:42.955Z,15.80
2018-04-26T16:58:10.398Z,15.90
2018-04-26T17:00:38.700Z,16.10
2018-04-26T17:03:06.751Z,16.00
2018-04-26T17:05:35.797Z,16.10
2018-04-26T17:08:03.240Z,16.10
2018-04-26T17:10:31.328Z,16.10
2018-04-26T17:12:58.777Z,16.10
2018-04-26T17:15:26.260Z,16.00
2018-04-26T17:17:53.683Z,16.00
2018-04-26T17:20:22.295Z,16.00
2018-04-26T17:22:50.140Z,16.00
2018-04-26T17:25:17.592Z,15.90
2018-04-26T17:27:45.043Z,15.90
2018-04-26T17:30:12.699Z,15.90
2018-04-26T17:32:40.795Z,15.80
2018-04-26T17:35:09.266Z,15.80
2018-04-26T17:37:36.747Z,15.90
2018-04-26T17:40:05.182Z,15.80
2018-04-26T17:42:33.387Z,15.70
2018-04-26T17:45:01.034Z,15.80
2018-04-26T17:47:28.666Z,15.80
2018-04-26T17:49:56.131Z,15.80
2018-04-26T17:52:23.715Z,15.70
2018-04-26T17:54:51.788Z,15.70
2018-04-26T17:57:19.251Z,15.60
2018-04-26T17:59:47.156Z,15.50
2018-04-26T18:02:14.768Z,15.40
2018-04-26T18:04:42.604Z,15.30
2018-04-26T18:07:10.067Z,15.20
2018-04-26T18:09:37.614Z,15.10
2018-04-26T18:12:05.075Z,15.00
2018-04-26T18:14:33.314Z,14.90
2018-04-26T18:17:00.759Z,14.90
2018-04-26T18:19:29.541Z,15.00
2018-04-26T18:21:58.510Z,15.00
2018-04-26T18:24:25.970Z,15.00
2018-04-26T18:26:53.543Z,15.00
2018-04-26T18:29:21.304Z,15.00
2018-04-26T18:31:48.894Z,15.00
2018-04-26T18:34:17.151Z,15.00
2018-04-26T18:36:46.440Z,14.90
2018-04-26T18:39:14.028Z,15.00
2018-04-26T18:41:43.710Z,15.00
2018-04-26T18:44:11.260Z,15.00
2018-04-26T18:46:38.710Z,15.00
2018-04-26T18:49:06.958Z,15.00
2018-04-26T18:51:34.448Z,15.00
2018-04-26T18:54:02.532Z,15.00
2018-04-26T18:56:30.584Z,15.00
2018-04-26T18:58:58.060Z,14.90
2018-04-26T19:01:27.015Z,14.90
2018-04-26T19:03:55.305Z,14.80
2018-04-26T19:06:22.938Z,14.90
2018-04-26T19:08:50.500Z,14.80
2018-04-26T19:11:17.885Z,14.80
2018-04-26T19:13:45.419Z,14.80
2018-04-26T19:16:13.164Z,14.70
2018-04-26T19:18:41.971Z,14.60
2018-04-26T19:21:09.447Z,14.60
2018-04-26T19:23:36.909Z,14.60
2018-04-26T19:26:04.377Z,14.60
2018-04-26T19:28:31.983Z,14.60
2018-04-26T19:30:59.500Z,14.60
2018-04-26T19:33:27.391Z,14.60
2018-04-26T19:35:56.996Z,14.50
2018-04-26T19:38:25.306Z,14.40
2018-04-26T19:40:54.445Z,14.40
2018-04-26T19:43:23.738Z,14.30
2018-04-26T19:45:51.762Z,14.20
2018-04-26T19:48:19.221Z,14.10
2018-04-26T19:50:46.702Z,14.10
2018-04-26T19:53:16.200Z,14.00
2018-04-26T19:55:43.800Z,14.00
2018-04-26T19:58:12.005Z,13.90
2018-04-26T20:00:39.755Z,13.80
2018-04-26T20:03:07.246Z,13.80
2018-04-26T20:05:35.984Z,13.70
2018-04-26T20:08:04.195Z,13.60
2018-04-26T20:10:31.664Z,13.60
2018-04-26T20:12:59.107Z,13.50
2018-04-26T20:15:26.681Z,13.50
2018-04-26T20:17:54.122Z,13.30
2018-04-26T20:20:22.206Z,13.30
2018-04-26T20:22:49.651Z,13.30
2018-04-26T20:25:17.655Z,13.20
2018-04-26T20:27:45.164Z,13.10
2018-04-26T20:30:12.649Z,13.10
2018-04-26T20:32:40.115Z,13.00
2018-04-26T20:35:09.239Z,13.00
2018-04-26T20:37:36.720Z,12.90
2018-04-26T20:40:05.400Z,12.80
2018-04-26T20:42:34.289Z,12.70
2018-04-26T20:45:02.737Z,12.60
2018-04-26T20:47:30.223Z,12.60
2018-04-26T20:49:58.430Z,12.50
2018-04-26T20:52:26.133Z,12.50
2018-04-26T20:54:54.102Z,12.40
2018-04-26T20:57:21.570Z,12.40
2018-04-26T20:59:49.784Z,12.30
2018-04-26T21:02:17.333Z,12.30
2018-04-26T21:04:45.269Z,12.20
2018-04-26T21:07:12.792Z,12.20
2018-04-26T21:09:40.242Z,12.20
2018-04-26T21:12:09.159Z,12.20
2018-04-26T21:14:36.609Z,12.10
2018-04-26T21:17:04.092Z,12.10
2018-04-26T21:19:33.406Z,12.00
2018-04-26T21:22:01.852Z,12.00
2018-04-26T21:24:29.307Z,12.00
2018-04-26T21:26:56.879Z,12.00
2018-04-26T21:29:24.324Z,12.00
2018-04-26T21:31:52.492Z,12.00
2018-04-26T21:34:19.963Z,11.90
2018-04-26T21:36:48.017Z,11.90
2018-04-26T21:39:16.090Z,11.90
2018-04-26T21:41:44.285Z,11.90
2018-04-26T21:44:12.568Z,11.90
2018-04-26T21:46:40.934Z,11.80
2018-04-26T21:49:08.392Z,11.80
2018-04-26T21:51:41.730Z,11.80
2018-04-26T21:54:15.372Z,11.80
2018-04-26T21:56:48.560Z,11.80
2018-04-26T21:59:21.597Z,11.80
2018-04-26T22:01:54.992Z,11.80
2018-04-26T22:04:26.522Z,11.70
2018-04-26T22:06:54.360Z,11.80
2018-04-26T22:09:21.847Z,11.80
2018-04-26T22:11:49.297Z,11.80
2018-04-26T22:14:17.948Z,11.80
2018-04-26T22:16:47.004Z,11.80
2018-04-26T22:19:15.646Z,11.70
2018-04-26T22:21:43.332Z,11.70
2018-04-26T22:24:11.558Z,11.60
2018-04-26T22:26:40.466Z,11.50
2018-04-26T22:29:07.906Z,11.50
2018-04-26T22:31:35.702Z,11.50
2018-04-26T22:34:03.155Z,11.60
2018-04-26T22:36:34.483Z,11.50
2018-04-26T22:39:02.228Z,11.50
2018-04-26T22:41:30.222Z,11.60
2018-04-26T22:43:57.676Z,11.60
2018-04-26T22:46:25.342Z,11.60
2018-04-26T22:48:52.983Z,11.60
2018-04-26T22:51:22.167Z,11.60
2018-04-26T22:53:50.985Z,11.50
2018-04-26T22:56:18.998Z,11.50
2018-04-26T22:58:47.276Z,11.50
2018-04-26T23:01:14.741Z,11.50
2018-04-26T23:03:42.191Z,11.50
2018-04-26T23:06:11.648Z,11.40
2018-04-26T23:08:39.874Z,11.40
2018-04-26T23:11:07.829Z,11.40
2018-04-26T23:13:35.764Z,11.40
2018-04-26T23:16:03.492Z,11.40
2018-04-26T23:18:32.924Z,11.40
2018-04-26T23:21:00.391Z,11.40
2018-04-26T23:23:28.557Z,11.40
2018-04-26T23:25:56.459Z,11.50
2018-04-26T23:28:26.538Z,11.40
2018-04-26T23:30:54.199Z,11.40
2018-04-26T23:33:21.674Z,11.40
2018-04-26T23:35:49.702Z,11.30
2018-04-26T23:38:17.084Z,11.20
2018-04-26T23:40:45.159Z,11.20
2018-04-26T23:43:12.611Z,11.20
2018-04-26T23:45:40.383Z,11.20
2018-04-26T23:48:07.823Z,11.20
2018-04-26T23:50:35.487Z,11.20
2018-04-26T23:53:02.973Z,11.30
2018-04-26T23:55:30.923Z,11.30
2018-04-26T23:57:58.395Z,11.30
